sensor_id;sensor_type;location;lat;lon;timestamp;P1;durP1;ratioP1;P2;durP2;ratioP2
4450;SDS011;2238;50.180;9.230;2023-04-15T00:00:54;3.77;;;3.57;;
4450;SDS011;2238;50.180;9.230;2023-04-15T00:03:55;4.37;;;3.83;;
4450;SDS011;2238;50.180;9.230;2023-04-15T00:06:56;4.77;;;4.37;;
4450;SDS011;2238;50.180;9.230;2023-04-15T00:09:57;4.37;;;4.07;;
4450;SDS011;2238;50.180;9.230;2023-04-15T00:12:58;4.43;;;4.10;;
4450;SDS011;2238;50.180;9.230;2023-04-15T00:15:58;3.80;;;3.50;;
4450;SDS011;2238;50.180;9.230;2023-04-15T00:18:59;5.03;;;4.23;;
4450;SDS011;2238;50.180;9.230;2023-04-15T00:22:00;4.60;;;4.30;;
4450;SDS011;2238;50.180;9.230;2023-04-15T00:25:02;8.60;;;5.10;;
4450;SDS011;2238;50.180;9.230;2023-04-15T00:28:02;5.30;;;3.70;;
4450;SDS011;2238;50.180;9.230;2023-04-15T00:31:03;4.47;;;4.00;;
4450;SDS011;2238;50.180;9.230;2023-04-15T00:34:04;4.67;;;4.27;;
4450;SDS011;2238;50.180;9.230;2023-04-15T00:37:05;4.93;;;4.50;;
4450;SDS011;2238;50.180;9.230;2023-04-15T00:40:06;3.93;;;3.53;;
4450;SDS011;2238;50.180;9.230;2023-04-15T00:43:11;6.00;;;3.70;;
4450;SDS011;2238;50.180;9.230;2023-04-15T00:46:11;3.90;;;3.60;;
4450;SDS011;2238;50.180;9.230;2023-04-15T00:49:14;6.43;;;3.90;;
4450;SDS011;2238;50.180;9.230;2023-04-15T00:52:16;4.40;;;4.00;;
4450;SDS011;2238;50.180;9.230;2023-04-15T00:55:17;7.17;;;4.40;;
4450;SDS011;2238;50.180;9.230;2023-04-15T00:58:18;5.37;;;4.37;;
4450;SDS011;2238;50.180;9.230;2023-04-15T01:01:19;4.10;;;3.57;;
4450;SDS011;2238;50.180;9.230;2023-04-15T01:04:21;4.27;;;3.97;;
4450;SDS011;2238;50.180;9.230;2023-04-15T01:07:21;5.03;;;4.33;;
4450;SDS011;2238;50.180;9.230;2023-04-15T01:10:22;4.00;;;3.40;;
4450;SDS011;2238;50.180;9.230;2023-04-15T01:13:23;4.13;;;3.33;;
4450;SDS011;2238;50.180;9.230;2023-04-15T01:16:24;3.63;;;3.30;;
4450;SDS011;2238;50.180;9.230;2023-04-15T01:19:25;4.83;;;3.70;;
4450;SDS011;2238;50.180;9.230;2023-04-15T01:22:26;3.40;;;3.20;;
4450;SDS011;2238;50.180;9.230;2023-04-15T01:25:30;4.80;;;3.70;;
4450;SDS011;2238;50.180;9.230;2023-04-15T01:28:34;4.03;;;3.53;;
4450;SDS011;2238;50.180;9.230;2023-04-15T01:31:36;4.63;;;4.13;;
4450;SDS011;2238;50.180;9.230;2023-04-15T01:34:37;4.73;;;4.37;;
4450;SDS011;2238;50.180;9.230;2023-04-15T01:37:38;4.83;;;3.73;;
4450;SDS011;2238;50.180;9.230;2023-04-15T01:40:38;4.77;;;4.20;;
4450;SDS011;2238;50.180;9.230;2023-04-15T01:43:39;5.03;;;4.53;;
4450;SDS011;2238;50.180;9.230;2023-04-15T01:46:40;4.37;;;3.97;;
4450;SDS011;2238;50.180;9.230;2023-04-15T01:49:41;4.37;;;3.97;;
4450;SDS011;2238;50.180;9.230;2023-04-15T01:52:41;4.33;;;4.00;;
4450;SDS011;2238;50.180;9.230;2023-04-15T01:55:42;3.97;;;3.57;;
4450;SDS011;2238;50.180;9.230;2023-04-15T01:58:43;4.97;;;3.00;;
4450;SDS011;2238;50.180;9.230;2023-04-15T02:01:43;4.00;;;3.60;;
4450;SDS011;2238;50.180;9.230;2023-04-15T02:04:45;3.83;;;3.50;;
4450;SDS011;2238;50.180;9.230;2023-04-15T02:07:46;4.17;;;3.77;;
4450;SDS011;2238;50.180;9.230;2023-04-15T02:10:47;4.40;;;3.87;;
4450;SDS011;2238;50.180;9.230;2023-04-15T02:13:48;4.50;;;4.10;;
4450;SDS011;2238;50.180;9.230;2023-04-15T02:16:48;6.20;;;3.70;;
4450;SDS011;2238;50.180;9.230;2023-04-15T02:19:49;4.03;;;3.63;;
4450;SDS011;2238;50.180;9.230;2023-04-15T02:22:49;4.27;;;3.87;;
4450;SDS011;2238;50.180;9.230;2023-04-15T02:25:51;5.40;;;4.43;;
4450;SDS011;2238;50.180;9.230;2023-04-15T02:28:51;5.83;;;4.70;;
4450;SDS011;2238;50.180;9.230;2023-04-15T02:31:52;4.60;;;4.20;;
4450;SDS011;2238;50.180;9.230;2023-04-15T02:34:52;5.90;;;5.30;;
4450;SDS011;2238;50.180;9.230;2023-04-15T02:37:53;8.17;;;6.30;;
4450;SDS011;2238;50.180;9.230;2023-04-15T02:40:54;8.47;;;7.60;;
4450;SDS011;2238;50.180;9.230;2023-04-15T02:43:56;8.30;;;7.60;;
4450;SDS011;2238;50.180;9.230;2023-04-15T02:46:57;6.60;;;5.77;;
4450;SDS011;2238;50.180;9.230;2023-04-15T02:49:58;5.13;;;4.70;;
4450;SDS011;2238;50.180;9.230;2023-04-15T02:53:00;5.07;;;4.67;;
4450;SDS011;2238;50.180;9.230;2023-04-15T02:56:01;5.43;;;4.93;;
4450;SDS011;2238;50.180;9.230;2023-04-15T02:59:02;6.60;;;6.00;;
4450;SDS011;2238;50.180;9.230;2023-04-15T03:02:03;7.27;;;5.97;;
4450;SDS011;2238;50.180;9.230;2023-04-15T03:05:10;5.33;;;4.90;;
4450;SDS011;2238;50.180;9.230;2023-04-15T03:08:12;4.93;;;3.93;;
4450;SDS011;2238;50.180;9.230;2023-04-15T03:11:14;4.77;;;4.00;;
4450;SDS011;2238;50.180;9.230;2023-04-15T03:14:15;4.30;;;4.00;;
4450;SDS011;2238;50.180;9.230;2023-04-15T03:17:15;4.33;;;3.93;;
4450;SDS011;2238;50.180;9.230;2023-04-15T03:20:17;3.43;;;3.23;;
4450;SDS011;2238;50.180;9.230;2023-04-15T03:23:17;6.23;;;4.87;;
4450;SDS011;2238;50.180;9.230;2023-04-15T03:26:28;4.47;;;4.07;;
4450;SDS011;2238;50.180;9.230;2023-04-15T03:29:29;5.40;;;3.93;;
4450;SDS011;2238;50.180;9.230;2023-04-15T03:32:31;4.57;;;4.10;;
4450;SDS011;2238;50.180;9.230;2023-04-15T03:35:32;4.97;;;4.57;;
4450;SDS011;2238;50.180;9.230;2023-04-15T03:38:33;5.07;;;4.53;;
4450;SDS011;2238;50.180;9.230;2023-04-15T03:41:34;4.67;;;4.27;;
4450;SDS011;2238;50.180;9.230;2023-04-15T03:44:35;4.70;;;4.30;;
4450;SDS011;2238;50.180;9.230;2023-04-15T03:47:36;5.03;;;4.47;;
4450;SDS011;2238;50.180;9.230;2023-04-15T03:50:36;7.60;;;4.97;;
4450;SDS011;2238;50.180;9.230;2023-04-15T03:53:37;7.37;;;4.40;;
4450;SDS011;2238;50.180;9.230;2023-04-15T03:56:37;8.47;;;4.80;;
4450;SDS011;2238;50.180;9.230;2023-04-15T03:59:38;5.80;;;5.20;;
4450;SDS011;2238;50.180;9.230;2023-04-15T04:02:38;5.20;;;4.33;;
4450;SDS011;2238;50.180;9.230;2023-04-15T04:05:39;5.37;;;4.70;;
4450;SDS011;2238;50.180;9.230;2023-04-15T04:08:40;7.73;;;5.37;;
4450;SDS011;2238;50.180;9.230;2023-04-15T04:11:41;5.80;;;5.30;;
4450;SDS011;2238;50.180;9.230;2023-04-15T04:14:41;6.53;;;5.93;;
4450;SDS011;2238;50.180;9.230;2023-04-15T04:38:22;4.97;;;4.50;;
4450;SDS011;2238;50.180;9.230;2023-04-15T04:41:22;6.93;;;4.80;;
4450;SDS011;2238;50.180;9.230;2023-04-15T04:44:23;5.30;;;4.47;;
4450;SDS011;2238;50.180;9.230;2023-04-15T04:47:24;5.67;;;5.03;;
4450;SDS011;2238;50.180;9.230;2023-04-15T04:50:24;5.67;;;5.07;;
4450;SDS011;2238;50.180;9.230;2023-04-15T04:53:26;4.67;;;4.27;;
4450;SDS011;2238;50.180;9.230;2023-04-15T04:56:27;6.83;;;5.10;;
4450;SDS011;2238;50.180;9.230;2023-04-15T04:59:27;5.13;;;4.27;;
4450;SDS011;2238;50.180;9.230;2023-04-15T05:02:28;7.77;;;5.90;;
4450;SDS011;2238;50.180;9.230;2023-04-15T05:05:28;9.97;;;8.03;;
4450;SDS011;2238;50.180;9.230;2023-04-15T05:08:29;8.00;;;7.20;;
4450;SDS011;2238;50.180;9.230;2023-04-15T05:11:29;7.73;;;6.93;;
4450;SDS011;2238;50.180;9.230;2023-04-15T05:14:30;8.00;;;7.13;;
4450;SDS011;2238;50.180;9.230;2023-04-15T05:17:31;5.50;;;5.00;;
4450;SDS011;2238;50.180;9.230;2023-04-15T05:20:34;9.30;;;6.37;;
4450;SDS011;2238;50.180;9.230;2023-04-15T05:23:34;7.67;;;6.97;;
4450;SDS011;2238;50.180;9.230;2023-04-15T05:26:35;11.17;;;7.70;;
4450;SDS011;2238;50.180;9.230;2023-04-15T05:29:36;7.07;;;6.37;;
4450;SDS011;2238;50.180;9.230;2023-04-15T05:32:36;8.07;;;7.27;;
4450;SDS011;2238;50.180;9.230;2023-04-15T05:35:37;6.30;;;5.77;;
4450;SDS011;2238;50.180;9.230;2023-04-15T05:38:37;9.57;;;8.57;;
4450;SDS011;2238;50.180;9.230;2023-04-15T05:41:38;12.73;;;11.43;;
4450;SDS011;2238;50.180;9.230;2023-04-15T05:44:38;14.17;;;12.77;;
4450;SDS011;2238;50.180;9.230;2023-04-15T05:47:39;14.40;;;11.70;;
4450;SDS011;2238;50.180;9.230;2023-04-15T05:50:40;14.70;;;13.20;;
4450;SDS011;2238;50.180;9.230;2023-04-15T05:53:41;12.43;;;11.23;;
4450;SDS011;2238;50.180;9.230;2023-04-15T05:56:42;10.90;;;9.57;;
4450;SDS011;2238;50.180;9.230;2023-04-15T05:59:42;15.93;;;14.30;;
4450;SDS011;2238;50.180;9.230;2023-04-15T06:02:43;14.63;;;12.70;;
4450;SDS011;2238;50.180;9.230;2023-04-15T06:05:44;12.83;;;11.53;;
4450;SDS011;2238;50.180;9.230;2023-04-15T06:08:45;14.90;;;13.40;;
4450;SDS011;2238;50.180;9.230;2023-04-15T06:11:45;13.23;;;11.87;;
4450;SDS011;2238;50.180;9.230;2023-04-15T06:14:46;18.30;;;16.40;;
4450;SDS011;2238;50.180;9.230;2023-04-15T06:17:46;16.83;;;15.13;;
4450;SDS011;2238;50.180;9.230;2023-04-15T06:20:47;13.00;;;11.80;;
4450;SDS011;2238;50.180;9.230;2023-04-15T06:23:48;11.30;;;9.00;;
4450;SDS011;2238;50.180;9.230;2023-04-15T06:26:49;10.37;;;8.80;;
4450;SDS011;2238;50.180;9.230;2023-04-15T06:29:50;10.67;;;9.57;;
4450;SDS011;2238;50.180;9.230;2023-04-15T06:32:50;11.77;;;10.57;;
4450;SDS011;2238;50.180;9.230;2023-04-15T06:35:51;9.93;;;8.90;;
4450;SDS011;2238;50.180;9.230;2023-04-15T06:38:52;10.27;;;9.27;;
4450;SDS011;2238;50.180;9.230;2023-04-15T06:41:52;16.83;;;11.60;;
4450;SDS011;2238;50.180;9.230;2023-04-15T06:44:53;13.43;;;12.20;;
4450;SDS011;2238;50.180;9.230;2023-04-15T06:47:53;13.53;;;12.00;;
4450;SDS011;2238;50.180;9.230;2023-04-15T06:50:54;12.60;;;10.53;;
4450;SDS011;2238;50.180;9.230;2023-04-15T06:53:55;10.67;;;9.67;;
4450;SDS011;2238;50.180;9.230;2023-04-15T06:56:56;10.63;;;9.53;;
4450;SDS011;2238;50.180;9.230;2023-04-15T06:59:56;11.23;;;10.07;;
4450;SDS011;2238;50.180;9.230;2023-04-15T07:02:57;11.17;;;10.07;;
4450;SDS011;2238;50.180;9.230;2023-04-15T07:05:58;11.97;;;10.27;;
4450;SDS011;2238;50.180;9.230;2023-04-15T07:08:58;11.37;;;10.23;;
4450;SDS011;2238;50.180;9.230;2023-04-15T07:12:00;12.20;;;9.83;;
4450;SDS011;2238;50.180;9.230;2023-04-15T07:15:00;12.63;;;10.07;;
4450;SDS011;2238;50.180;9.230;2023-04-15T07:18:01;13.23;;;11.83;;
4450;SDS011;2238;50.180;9.230;2023-04-15T07:21:02;11.00;;;8.87;;
4450;SDS011;2238;50.180;9.230;2023-04-15T07:24:02;15.20;;;10.70;;
4450;SDS011;2238;50.180;9.230;2023-04-15T07:27:03;11.00;;;9.47;;
4450;SDS011;2238;50.180;9.230;2023-04-15T07:30:04;8.93;;;8.13;;
4450;SDS011;2238;50.180;9.230;2023-04-15T07:33:05;8.77;;;7.40;;
4450;SDS011;2238;50.180;9.230;2023-04-15T07:36:06;7.57;;;6.77;;
4450;SDS011;2238;50.180;9.230;2023-04-15T07:39:06;6.27;;;5.63;;
4450;SDS011;2238;50.180;9.230;2023-04-15T07:42:07;6.67;;;6.07;;
4450;SDS011;2238;50.180;9.230;2023-04-15T07:45:08;5.50;;;5.00;;
4450;SDS011;2238;50.180;9.230;2023-04-15T07:48:09;6.40;;;5.80;;
4450;SDS011;2238;50.180;9.230;2023-04-15T07:51:10;19.50;;;17.60;;
4450;SDS011;2238;50.180;9.230;2023-04-15T07:54:11;6.83;;;6.00;;
4450;SDS011;2238;50.180;9.230;2023-04-15T07:57:13;7.50;;;6.33;;
4450;SDS011;2238;50.180;9.230;2023-04-15T08:00:13;7.03;;;6.43;;
4450;SDS011;2238;50.180;9.230;2023-04-15T08:03:15;11.83;;;7.87;;
4450;SDS011;2238;50.180;9.230;2023-04-15T08:06:16;8.60;;;7.40;;
4450;SDS011;2238;50.180;9.230;2023-04-15T08:09:16;9.90;;;8.30;;
4450;SDS011;2238;50.180;9.230;2023-04-15T08:12:17;10.10;;;8.80;;
4450;SDS011;2238;50.180;9.230;2023-04-15T08:15:18;9.20;;;8.20;;
4450;SDS011;2238;50.180;9.230;2023-04-15T08:18:19;9.37;;;8.40;;
4450;SDS011;2238;50.180;9.230;2023-04-15T08:21:19;9.97;;;8.97;;
4450;SDS011;2238;50.180;9.230;2023-04-15T08:24:20;10.00;;;8.23;;
4450;SDS011;2238;50.180;9.230;2023-04-15T08:27:21;10.80;;;8.30;;
4450;SDS011;2238;50.180;9.230;2023-04-15T08:30:22;13.63;;;10.53;;
4450;SDS011;2238;50.180;9.230;2023-04-15T08:33:22;10.87;;;8.87;;
4450;SDS011;2238;50.180;9.230;2023-04-15T08:36:23;12.83;;;10.40;;
4450;SDS011;2238;50.180;9.230;2023-04-15T08:39:24;12.93;;;11.63;;
4450;SDS011;2238;50.180;9.230;2023-04-15T08:42:31;15.67;;;11.70;;
4450;SDS011;2238;50.180;9.230;2023-04-15T08:45:40;13.80;;;10.90;;
4450;SDS011;2238;50.180;9.230;2023-04-15T08:48:41;13.00;;;10.60;;
4450;SDS011;2238;50.180;9.230;2023-04-15T08:51:43;11.27;;;9.63;;
4450;SDS011;2238;50.180;9.230;2023-04-15T08:54:44;11.80;;;10.13;;
4450;SDS011;2238;50.180;9.230;2023-04-15T08:57:45;11.73;;;9.57;;
4450;SDS011;2238;50.180;9.230;2023-04-15T09:00:46;14.73;;;13.23;;
4450;SDS011;2238;50.180;9.230;2023-04-15T09:03:48;11.20;;;9.30;;
4450;SDS011;2238;50.180;9.230;2023-04-15T09:06:49;11.97;;;10.20;;
4450;SDS011;2238;50.180;9.230;2023-04-15T09:09:51;11.13;;;9.67;;
4450;SDS011;2238;50.180;9.230;2023-04-15T09:12:51;13.40;;;10.67;;
4450;SDS011;2238;50.180;9.230;2023-04-15T09:15:52;11.30;;;9.83;;
4450;SDS011;2238;50.180;9.230;2023-04-15T09:18:54;11.33;;;10.13;;
4450;SDS011;2238;50.180;9.230;2023-04-15T09:21:55;10.60;;;9.50;;
4450;SDS011;2238;50.180;9.230;2023-04-15T09:24:57;9.53;;;8.50;;
4450;SDS011;2238;50.180;9.230;2023-04-15T09:27:58;8.73;;;7.83;;
4450;SDS011;2238;50.180;9.230;2023-04-15T09:31:00;11.73;;;8.33;;
4450;SDS011;2238;50.180;9.230;2023-04-15T09:34:01;8.77;;;7.77;;
4450;SDS011;2238;50.180;9.230;2023-04-15T09:37:02;11.53;;;7.70;;
4450;SDS011;2238;50.180;9.230;2023-04-15T09:40:03;9.60;;;7.80;;
4450;SDS011;2238;50.180;9.230;2023-04-15T09:43:04;8.70;;;7.80;;
4450;SDS011;2238;50.180;9.230;2023-04-15T09:46:05;6.67;;;6.07;;
4450;SDS011;2238;50.180;9.230;2023-04-15T09:49:06;5.97;;;5.40;;
4450;SDS011;2238;50.180;9.230;2023-04-15T09:52:09;6.40;;;5.80;;
4450;SDS011;2238;50.180;9.230;2023-04-15T09:55:13;6.27;;;5.40;;
4450;SDS011;2238;50.180;9.230;2023-04-15T09:58:22;5.67;;;5.10;;
4450;SDS011;2238;50.180;9.230;2023-04-15T10:01:24;14.23;;;6.17;;
4450;SDS011;2238;50.180;9.230;2023-04-15T10:04:25;6.70;;;5.30;;
4450;SDS011;2238;50.180;9.230;2023-04-15T10:07:27;5.93;;;4.97;;
4450;SDS011;2238;50.180;9.230;2023-04-15T10:10:28;3.57;;;3.30;;
4450;SDS011;2238;50.180;9.230;2023-04-15T10:13:30;3.90;;;3.60;;
4450;SDS011;2238;50.180;9.230;2023-04-15T10:16:35;3.07;;;2.37;;
4450;SDS011;2238;50.180;9.230;2023-04-15T10:19:42;2.53;;;2.33;;
4450;SDS011;2238;50.180;9.230;2023-04-15T10:22:43;3.50;;;3.20;;
4450;SDS011;2238;50.180;9.230;2023-04-15T10:25:45;2.87;;;2.67;;
4450;SDS011;2238;50.180;9.230;2023-04-15T10:28:47;4.77;;;4.27;;
4450;SDS011;2238;50.180;9.230;2023-04-15T10:31:48;6.00;;;5.40;;
4450;SDS011;2238;50.180;9.230;2023-04-15T10:34:49;4.40;;;4.00;;
4450;SDS011;2238;50.180;9.230;2023-04-15T10:37:51;4.20;;;3.80;;
4450;SDS011;2238;50.180;9.230;2023-04-15T10:40:52;4.47;;;4.07;;
4450;SDS011;2238;50.180;9.230;2023-04-15T10:43:53;4.37;;;3.97;;
4450;SDS011;2238;50.180;9.230;2023-04-15T10:47:10;4.50;;;4.20;;
4450;SDS011;2238;50.180;9.230;2023-04-15T10:50:12;4.57;;;4.17;;
4450;SDS011;2238;50.180;9.230;2023-04-15T10:53:20;4.77;;;4.37;;
4450;SDS011;2238;50.180;9.230;2023-04-15T10:56:28;5.70;;;5.20;;
4450;SDS011;2238;50.180;9.230;2023-04-15T10:59:36;4.83;;;4.40;;
4450;SDS011;2238;50.180;9.230;2023-04-15T11:02:58;5.27;;;4.80;;
4450;SDS011;2238;50.180;9.230;2023-04-15T11:06:05;4.40;;;4.00;;
4450;SDS011;2238;50.180;9.230;2023-04-15T11:09:06;5.00;;;4.60;;
4450;SDS011;2238;50.180;9.230;2023-04-15T11:12:08;5.27;;;4.70;;
4450;SDS011;2238;50.180;9.230;2023-04-15T11:18:29;6.23;;;5.63;;
4450;SDS011;2238;50.180;9.230;2023-04-15T11:21:31;6.77;;;6.07;;
4450;SDS011;2238;50.180;9.230;2023-04-15T11:24:33;6.30;;;5.50;;
4450;SDS011;2238;50.180;9.230;2023-04-15T11:27:33;6.23;;;5.60;;
4450;SDS011;2238;50.180;9.230;2023-04-15T11:30:34;6.47;;;5.80;;
4450;SDS011;2238;50.180;9.230;2023-04-15T11:33:38;6.80;;;5.30;;
4450;SDS011;2238;50.180;9.230;2023-04-15T11:36:45;5.17;;;4.50;;
4450;SDS011;2238;50.180;9.230;2023-04-15T11:39:46;5.10;;;4.60;;
4450;SDS011;2238;50.180;9.230;2023-04-15T11:46:05;6.93;;;5.97;;
4450;SDS011;2238;50.180;9.230;2023-04-15T11:49:05;5.47;;;4.97;;
4450;SDS011;2238;50.180;9.230;2023-04-15T11:52:09;6.83;;;5.90;;
4450;SDS011;2238;50.180;9.230;2023-04-15T11:55:10;6.50;;;5.30;;
4450;SDS011;2238;50.180;9.230;2023-04-15T11:58:18;6.90;;;5.70;;
4450;SDS011;2238;50.180;9.230;2023-04-15T12:01:30;7.03;;;5.70;;
4450;SDS011;2238;50.180;9.230;2023-04-15T12:04:31;6.47;;;5.80;;
4450;SDS011;2238;50.180;9.230;2023-04-15T12:07:32;7.83;;;6.40;;
4450;SDS011;2238;50.180;9.230;2023-04-15T12:10:32;10.53;;;6.70;;
4450;SDS011;2238;50.180;9.230;2023-04-15T12:13:33;8.50;;;7.67;;
4450;SDS011;2238;50.180;9.230;2023-04-15T12:16:38;8.87;;;7.30;;
4450;SDS011;2238;50.180;9.230;2023-04-15T12:19:40;11.63;;;8.00;;
4450;SDS011;2238;50.180;9.230;2023-04-15T12:22:42;9.40;;;7.33;;
4450;SDS011;2238;50.180;9.230;2023-04-15T12:25:42;8.63;;;7.73;;
4450;SDS011;2238;50.180;9.230;2023-04-15T12:28:43;10.83;;;7.20;;
4450;SDS011;2238;50.180;9.230;2023-04-15T12:31:51;10.33;;;8.13;;
4450;SDS011;2238;50.180;9.230;2023-04-15T12:34:53;12.07;;;9.10;;
4450;SDS011;2238;50.180;9.230;2023-04-15T12:37:54;10.23;;;7.47;;
4450;SDS011;2238;50.180;9.230;2023-04-15T12:40:54;8.03;;;6.90;;
4450;SDS011;2238;50.180;9.230;2023-04-15T12:43:55;7.83;;;6.80;;
4450;SDS011;2238;50.180;9.230;2023-04-15T12:46:56;7.23;;;6.40;;
4450;SDS011;2238;50.180;9.230;2023-04-15T12:49:57;7.90;;;7.07;;
4450;SDS011;2238;50.180;9.230;2023-04-15T12:52:57;7.20;;;6.50;;
4450;SDS011;2238;50.180;9.230;2023-04-15T12:55:58;9.50;;;6.43;;
4450;SDS011;2238;50.180;9.230;2023-04-15T12:58:59;6.73;;;6.13;;
4450;SDS011;2238;50.180;9.230;2023-04-15T13:01:59;8.77;;;6.77;;
4450;SDS011;2238;50.180;9.230;2023-04-15T13:05:01;10.00;;;6.93;;
4450;SDS011;2238;50.180;9.230;2023-04-15T13:08:02;10.83;;;7.27;;
4450;SDS011;2238;50.180;9.230;2023-04-15T13:11:03;7.03;;;6.30;;
4450;SDS011;2238;50.180;9.230;2023-04-15T13:14:04;7.50;;;6.13;;
4450;SDS011;2238;50.180;9.230;2023-04-15T13:17:07;7.90;;;6.50;;
4450;SDS011;2238;50.180;9.230;2023-04-15T13:20:09;7.77;;;6.90;;
4450;SDS011;2238;50.180;9.230;2023-04-15T13:23:10;7.90;;;7.10;;
4450;SDS011;2238;50.180;9.230;2023-04-15T13:26:10;8.63;;;7.23;;
4450;SDS011;2238;50.180;9.230;2023-04-15T13:29:11;7.93;;;6.60;;
4450;SDS011;2238;50.180;9.230;2023-04-15T13:32:13;9.57;;;7.67;;
4450;SDS011;2238;50.180;9.230;2023-04-15T13:35:13;8.30;;;6.97;;
4450;SDS011;2238;50.180;9.230;2023-04-15T13:38:14;7.90;;;6.43;;
4450;SDS011;2238;50.180;9.230;2023-04-15T13:41:14;8.53;;;7.30;;
4450;SDS011;2238;50.180;9.230;2023-04-15T13:44:15;7.57;;;6.70;;
4450;SDS011;2238;50.180;9.230;2023-04-15T13:47:16;9.40;;;6.63;;
4450;SDS011;2238;50.180;9.230;2023-04-15T13:50:18;7.60;;;6.60;;
4450;SDS011;2238;50.180;9.230;2023-04-15T13:53:19;8.47;;;6.60;;
4450;SDS011;2238;50.180;9.230;2023-04-15T13:56:20;7.73;;;6.93;;
4450;SDS011;2238;50.180;9.230;2023-04-15T13:59:20;7.87;;;6.50;;
4450;SDS011;2238;50.180;9.230;2023-04-15T14:02:21;9.87;;;7.70;;
4450;SDS011;2238;50.180;9.230;2023-04-15T14:05:22;9.03;;;6.80;;
4450;SDS011;2238;50.180;9.230;2023-04-15T14:08:23;8.27;;;7.47;;
4450;SDS011;2238;50.180;9.230;2023-04-15T14:11:25;7.00;;;6.10;;
4450;SDS011;2238;50.180;9.230;2023-04-15T14:14:25;6.97;;;6.30;;
4450;SDS011;2238;50.180;9.230;2023-04-15T14:17:26;8.20;;;6.17;;
4450;SDS011;2238;50.180;9.230;2023-04-15T14:20:27;8.60;;;7.50;;
4450;SDS011;2238;50.180;9.230;2023-04-15T14:23:27;8.50;;;7.07;;
4450;SDS011;2238;50.180;9.230;2023-04-15T14:26:28;6.63;;;6.03;;
4450;SDS011;2238;50.180;9.230;2023-04-15T14:29:28;9.10;;;8.20;;
4450;SDS011;2238;50.180;9.230;2023-04-15T14:32:30;10.77;;;8.80;;
4450;SDS011;2238;50.180;9.230;2023-04-15T14:35:30;10.63;;;9.60;;
4450;SDS011;2238;50.180;9.230;2023-04-15T14:38:33;9.13;;;6.70;;
4450;SDS011;2238;50.180;9.230;2023-04-15T14:41:37;8.80;;;7.90;;
4450;SDS011;2238;50.180;9.230;2023-04-15T14:44:37;8.47;;;7.67;;
4450;SDS011;2238;50.180;9.230;2023-04-15T14:47:38;9.87;;;8.90;;
4450;SDS011;2238;50.180;9.230;2023-04-15T14:50:39;8.50;;;7.33;;
4450;SDS011;2238;50.180;9.230;2023-04-15T14:53:39;8.10;;;7.30;;
4450;SDS011;2238;50.180;9.230;2023-04-15T14:56:40;11.53;;;10.43;;
4450;SDS011;2238;50.180;9.230;2023-04-15T14:59:42;7.73;;;6.93;;
4450;SDS011;2238;50.180;9.230;2023-04-15T15:02:42;8.73;;;7.83;;
4450;SDS011;2238;50.180;9.230;2023-04-15T15:05:44;7.93;;;7.13;;
4450;SDS011;2238;50.180;9.230;2023-04-15T15:08:45;10.27;;;8.67;;
4450;SDS011;2238;50.180;9.230;2023-04-15T15:11:46;7.93;;;7.23;;
4450;SDS011;2238;50.180;9.230;2023-04-15T15:14:46;8.37;;;7.57;;
4450;SDS011;2238;50.180;9.230;2023-04-15T15:17:47;11.23;;;9.57;;
4450;SDS011;2238;50.180;9.230;2023-04-15T15:20:47;11.43;;;9.30;;
4450;SDS011;2238;50.180;9.230;2023-04-15T15:23:48;8.90;;;8.00;;
4450;SDS011;2238;50.180;9.230;2023-04-15T15:26:49;14.20;;;10.87;;
4450;SDS011;2238;50.180;9.230;2023-04-15T15:29:50;17.30;;;12.53;;
4450;SDS011;2238;50.180;9.230;2023-04-15T15:32:50;11.90;;;10.60;;
4450;SDS011;2238;50.180;9.230;2023-04-15T15:35:51;14.07;;;11.77;;
4450;SDS011;2238;50.180;9.230;2023-04-15T15:38:52;13.87;;;12.13;;
4450;SDS011;2238;50.180;9.230;2023-04-15T15:41:52;11.60;;;10.40;;
4450;SDS011;2238;50.180;9.230;2023-04-15T15:44:53;12.70;;;10.60;;
4450;SDS011;2238;50.180;9.230;2023-04-15T15:47:54;13.87;;;10.97;;
4450;SDS011;2238;50.180;9.230;2023-04-15T15:50:56;11.60;;;9.20;;
4450;SDS011;2238;50.180;9.230;2023-04-15T15:53:56;11.10;;;10.00;;
4450;SDS011;2238;50.180;9.230;2023-04-15T15:56:57;12.43;;;10.80;;
4450;SDS011;2238;50.180;9.230;2023-04-15T15:59:58;11.93;;;9.60;;
4450;SDS011;2238;50.180;9.230;2023-04-15T16:02:58;12.37;;;10.60;;
4450;SDS011;2238;50.180;9.230;2023-04-15T16:05:59;14.13;;;10.83;;
4450;SDS011;2238;50.180;9.230;2023-04-15T16:08:59;11.00;;;9.80;;
4450;SDS011;2238;50.180;9.230;2023-04-15T16:12:00;21.33;;;14.20;;
4450;SDS011;2238;50.180;9.230;2023-04-15T16:15:02;16.70;;;13.27;;
4450;SDS011;2238;50.180;9.230;2023-04-15T16:18:03;19.07;;;14.13;;
4450;SDS011;2238;50.180;9.230;2023-04-15T16:21:04;77.30;;;38.63;;
4450;SDS011;2238;50.180;9.230;2023-04-15T16:24:05;16.77;;;13.07;;
4450;SDS011;2238;50.180;9.230;2023-04-15T16:27:06;14.90;;;13.20;;
4450;SDS011;2238;50.180;9.230;2023-04-15T16:30:07;21.67;;;19.40;;
4450;SDS011;2238;50.180;9.230;2023-04-15T16:33:08;29.77;;;26.53;;
4450;SDS011;2238;50.180;9.230;2023-04-15T16:36:08;25.47;;;20.60;;
4450;SDS011;2238;50.180;9.230;2023-04-15T16:39:09;20.33;;;17.17;;
4450;SDS011;2238;50.180;9.230;2023-04-15T16:42:10;22.07;;;19.97;;
4450;SDS011;2238;50.180;9.230;2023-04-15T16:45:10;20.33;;;18.30;;
4450;SDS011;2238;50.180;9.230;2023-04-15T16:48:11;15.50;;;13.97;;
4450;SDS011;2238;50.180;9.230;2023-04-15T16:51:11;16.87;;;15.37;;
4450;SDS011;2238;50.180;9.230;2023-04-15T16:54:12;11.10;;;9.60;;
4450;SDS011;2238;50.180;9.230;2023-04-15T16:57:13;13.63;;;12.23;;
4450;SDS011;2238;50.180;9.230;2023-04-15T17:00:13;13.20;;;11.80;;
4450;SDS011;2238;50.180;9.230;2023-04-15T17:03:14;14.43;;;12.93;;
4450;SDS011;2238;50.180;9.230;2023-04-15T17:06:15;11.10;;;9.90;;
4450;SDS011;2238;50.180;9.230;2023-04-15T17:09:16;12.20;;;11.00;;
4450;SDS011;2238;50.180;9.230;2023-04-15T17:12:16;18.90;;;13.10;;
4450;SDS011;2238;50.180;9.230;2023-04-15T17:15:17;13.63;;;10.00;;
4450;SDS011;2238;50.180;9.230;2023-04-15T17:18:18;12.13;;;10.93;;
4450;SDS011;2238;50.180;9.230;2023-04-15T17:21:19;13.10;;;11.80;;
4450;SDS011;2238;50.180;9.230;2023-04-15T17:24:20;11.03;;;9.90;;
4450;SDS011;2238;50.180;9.230;2023-04-15T17:27:21;11.30;;;10.20;;
4450;SDS011;2238;50.180;9.230;2023-04-15T17:30:22;10.20;;;9.20;;
4450;SDS011;2238;50.180;9.230;2023-04-15T17:33:22;9.83;;;8.83;;
4450;SDS011;2238;50.180;9.230;2023-04-15T17:36:23;9.30;;;8.30;;
4450;SDS011;2238;50.180;9.230;2023-04-15T17:39:25;9.50;;;8.57;;
4450;SDS011;2238;50.180;9.230;2023-04-15T17:42:26;11.80;;;9.60;;
4450;SDS011;2238;50.180;9.230;2023-04-15T17:45:27;10.97;;;9.13;;
4450;SDS011;2238;50.180;9.230;2023-04-15T17:48:27;10.70;;;9.60;;
4450;SDS011;2238;50.180;9.230;2023-04-15T17:51:28;9.97;;;9.00;;
4450;SDS011;2238;50.180;9.230;2023-04-15T17:54:28;10.33;;;9.23;;
4450;SDS011;2238;50.180;9.230;2023-04-15T17:57:29;10.37;;;8.80;;
4450;SDS011;2238;50.180;9.230;2023-04-15T18:00:30;9.77;;;8.70;;
4450;SDS011;2238;50.180;9.230;2023-04-15T18:03:30;10.63;;;9.53;;
4450;SDS011;2238;50.180;9.230;2023-04-15T18:06:31;9.73;;;8.73;;
4450;SDS011;2238;50.180;9.230;2023-04-15T18:09:31;11.20;;;10.10;;
4450;SDS011;2238;50.180;9.230;2023-04-15T18:12:32;9.40;;;8.37;;
4450;SDS011;2238;50.180;9.230;2023-04-15T18:15:33;10.30;;;9.20;;
4450;SDS011;2238;50.180;9.230;2023-04-15T18:18:34;10.20;;;8.50;;
4450;SDS011;2238;50.180;9.230;2023-04-15T18:21:34;11.20;;;9.23;;
4450;SDS011;2238;50.180;9.230;2023-04-15T18:24:35;8.23;;;7.50;;
4450;SDS011;2238;50.180;9.230;2023-04-15T18:27:36;9.70;;;7.63;;
4450;SDS011;2238;50.180;9.230;2023-04-15T18:30:39;10.17;;;9.03;;
4450;SDS011;2238;50.180;9.230;2023-04-15T18:33:40;17.07;;;14.23;;
4450;SDS011;2238;50.180;9.230;2023-04-15T18:36:40;12.87;;;11.50;;
4450;SDS011;2238;50.180;9.230;2023-04-15T18:39:41;19.17;;;12.70;;
4450;SDS011;2238;50.180;9.230;2023-04-15T18:42:42;72.43;;;41.43;;
4450;SDS011;2238;50.180;9.230;2023-04-15T18:45:43;16.10;;;14.30;;
4450;SDS011;2238;50.180;9.230;2023-04-15T18:48:43;10.20;;;9.20;;
4450;SDS011;2238;50.180;9.230;2023-04-15T18:51:45;10.77;;;9.87;;
4450;SDS011;2238;50.180;9.230;2023-04-15T18:54:45;10.50;;;9.50;;
4450;SDS011;2238;50.180;9.230;2023-04-15T18:57:46;12.10;;;10.90;;
4450;SDS011;2238;50.180;9.230;2023-04-15T19:00:46;11.40;;;9.90;;
4450;SDS011;2238;50.180;9.230;2023-04-15T19:03:47;10.90;;;9.80;;